Attica, Indiana
Current Conditions -  °F | °C
As of 8:54 PM on Wednesday 22 Oct 2014 (Local Time) from KLAF Reporting Station
Clear Clear  
Wind Chill: 44°   Ceiling: Unl
Heat Index: 44°   Visibility: 10mi
Dew Point: 38°   Wind: 0mph
Humidity: 79%   Direction: NA
Pressure: 30.26"   Gusts: NA
Location:  40.29°N, 87.25°W
Report Text: KLAF 230054Z 00000KT 10SM CLR 07/03 A3026 RMK AO2 SLP249 T00670033
Loading
Personal Weather Stations






























Interactive Weather Map
Tropical Storm Tracking
New forecast layout! Learn more

10-Day Weather Forecast

Advertisements
Track Severe Weather on mobile